createdAt,value
2019-03-12T00:00:02.308Z,14.34
2019-03-12T00:02:28.452Z,14.73
2019-03-12T00:04:54.639Z,15.16
2019-03-12T00:07:20.800Z,15.69
2019-03-12T00:09:46.955Z,16.10
2019-03-12T00:12:19.048Z,15.31
2019-03-12T00:14:45.203Z,14.60
2019-03-12T00:17:11.367Z,14.76
2019-03-12T00:19:37.652Z,12.60
2019-03-12T00:22:03.798Z,14.16
2019-03-12T00:24:29.950Z,13.00
2019-03-12T00:26:56.143Z,13.65
2019-03-12T00:29:22.305Z,12.88
2019-03-12T00:31:48.470Z,13.37
2019-03-12T00:34:14.663Z,14.09
2019-03-12T00:36:40.817Z,13.63
2019-03-12T00:39:06.980Z,12.63
2019-03-12T00:41:33.166Z,13.39
2019-03-12T00:43:59.320Z,13.68
2019-03-12T00:46:27.082Z,12.62
2019-03-12T00:48:53.557Z,12.58
2019-03-12T00:51:19.711Z,12.96
2019-03-12T00:53:45.870Z,12.85
2019-03-12T00:56:12.072Z,13.30
2019-03-12T00:58:38.232Z,13.84
2019-03-12T01:01:04.497Z,13.26
2019-03-12T01:04:19.131Z,12.51
2019-03-12T01:06:45.390Z,13.09
2019-03-12T01:09:11.747Z,12.69
2019-03-12T01:11:37.974Z,12.83
2019-03-12T01:14:04.278Z,13.29
2019-03-12T01:16:30.630Z,12.87
2019-03-12T01:18:56.844Z,13.67
2019-03-12T01:21:23.115Z,13.70
2019-03-12T01:23:49.281Z,13.35
2019-03-12T01:26:15.464Z,13.30
2019-03-12T01:28:41.846Z,13.31
2019-03-12T01:31:08.003Z,14.13
2019-03-12T01:33:34.191Z,14.24
2019-03-12T01:36:00.447Z,13.38
2019-03-12T01:38:26.718Z,14.54
2019-03-12T01:40:52.916Z,14.05
2019-03-12T01:43:19.184Z,13.49
2019-03-12T01:45:45.452Z,12.75
2019-03-12T01:48:11.635Z,13.46
2019-03-12T01:50:37.900Z,13.40
2019-03-12T01:53:04.051Z,13.96
2019-03-12T01:55:30.244Z,12.72
2019-03-12T01:57:56.398Z,13.60
2019-03-12T02:00:22.549Z,13.54
2019-03-12T02:02:48.739Z,13.30
2019-03-12T02:05:14.895Z,11.59
2019-03-12T02:07:41.158Z,12.98
2019-03-12T02:10:11.826Z,12.98
2019-03-12T02:12:38.103Z,12.52
2019-03-12T02:15:07.368Z,12.66
2019-03-12T02:17:33.551Z,11.79
2019-03-12T02:20:00.259Z,13.03
2019-03-12T02:22:26.381Z,12.71
2019-03-12T02:24:53.252Z,13.27
2019-03-12T02:27:19.636Z,11.91
2019-03-12T02:29:45.891Z,12.77
2019-03-12T02:32:12.182Z,12.77
2019-03-12T02:34:38.453Z,11.68
2019-03-12T02:37:04.612Z,13.08
2019-03-12T02:39:30.810Z,13.48
2019-03-12T02:41:56.959Z,13.71
2019-03-12T02:44:23.115Z,13.35
2019-03-12T02:46:49.412Z,13.75
2019-03-12T02:49:15.582Z,13.70
2019-03-12T02:51:41.842Z,13.60
2019-03-12T02:54:08.147Z,13.84
2019-03-12T02:56:34.300Z,14.20
2019-03-12T02:59:00.567Z,12.81
2019-03-12T03:01:26.859Z,12.50
2019-03-12T03:03:53.014Z,12.55
2019-03-12T03:06:37.878Z,13.38
2019-03-12T03:09:05.841Z,13.45
2019-03-12T03:11:32.005Z,13.31
2019-03-12T03:13:58.189Z,13.38
2019-03-12T03:16:24.651Z,13.80
2019-03-12T03:18:51.013Z,14.42
2019-03-12T03:21:17.311Z,13.80
2019-03-12T03:23:43.588Z,13.31
2019-03-12T03:26:09.739Z,14.87
2019-03-12T03:28:36.041Z,14.77
2019-03-12T03:31:02.214Z,14.10
2019-03-12T03:33:28.355Z,13.89
2019-03-12T03:35:54.594Z,13.73
2019-03-12T03:38:20.752Z,14.81
2019-03-12T03:40:46.905Z,14.18
2019-03-12T03:43:13.131Z,13.75
2019-03-12T03:45:39.395Z,13.85
2019-03-12T03:48:05.552Z,13.81
2019-03-12T03:50:31.887Z,14.10
2019-03-12T03:52:58.225Z,13.75
2019-03-12T03:55:24.476Z,14.07
2019-03-12T03:57:50.664Z,13.51
2019-03-12T04:00:19.038Z,12.54
2019-03-12T04:02:45.196Z,14.20
2019-03-12T04:05:11.481Z,14.40
2019-03-12T04:07:37.638Z,14.80
2019-03-12T04:10:06.590Z,13.62
2019-03-12T04:12:32.970Z,13.71
2019-03-12T04:14:59.194Z,13.84
2019-03-12T04:17:25.348Z,14.04
2019-03-12T04:19:51.536Z,14.39
2019-03-12T04:22:17.690Z,13.52
2019-03-12T04:24:43.955Z,13.72
2019-03-12T04:27:10.153Z,13.73
2019-03-12T04:29:36.538Z,13.42
2019-03-12T04:32:02.687Z,12.29
2019-03-12T04:34:28.876Z,12.61
2019-03-12T04:36:55.088Z,12.82
2019-03-12T04:39:21.242Z,13.06
2019-03-12T04:41:47.425Z,12.39
2019-03-12T04:44:13.579Z,12.34
2019-03-12T04:46:39.736Z,11.65
2019-03-12T04:49:05.944Z,11.77
2019-03-12T04:51:32.108Z,12.33
2019-03-12T04:53:58.271Z,12.09
2019-03-12T04:56:24.474Z,11.68
2019-03-12T04:58:50.723Z,13.40
2019-03-12T05:01:16.885Z,12.96
2019-03-12T05:03:43.112Z,12.69
2019-03-12T05:06:09.274Z,13.04
2019-03-12T05:08:35.432Z,12.61
2019-03-12T05:11:01.630Z,11.76
2019-03-12T05:13:27.884Z,12.06
2019-03-12T05:15:54.099Z,12.07
2019-03-12T05:18:21.096Z,12.32
2019-03-12T05:20:47.354Z,12.11
2019-03-12T05:23:13.508Z,11.68
2019-03-12T05:25:39.699Z,11.55
2019-03-12T05:28:05.864Z,11.45
2019-03-12T05:30:32.016Z,11.30
2019-03-12T05:32:58.209Z,11.82
2019-03-12T05:35:24.374Z,12.33
2019-03-12T05:37:50.633Z,11.23
2019-03-12T05:40:16.827Z,11.34
2019-03-12T05:42:42.984Z,11.42
2019-03-12T05:45:11.337Z,12.15
2019-03-12T05:47:37.535Z,11.82
2019-03-12T05:50:06.715Z,12.18
2019-03-12T05:52:32.884Z,12.26
2019-03-12T05:54:59.068Z,12.08
2019-03-12T05:57:25.226Z,11.80
2019-03-12T05:59:51.391Z,11.84
2019-03-12T06:02:17.708Z,11.97
2019-03-12T06:04:43.893Z,11.73
2019-03-12T06:07:10.157Z,11.82
2019-03-12T06:09:36.366Z,11.46
2019-03-12T06:12:02.615Z,12.23
2019-03-12T06:14:28.781Z,13.04
2019-03-12T06:16:54.998Z,12.17
2019-03-12T06:19:21.248Z,11.23
2019-03-12T06:21:47.427Z,12.08
2019-03-12T06:24:13.733Z,11.17
2019-03-12T06:26:39.885Z,11.89
2019-03-12T06:29:06.039Z,11.56
2019-03-12T06:31:36.638Z,11.21
2019-03-12T06:34:04.686Z,11.42
2019-03-12T06:36:41.749Z,12.29
2019-03-12T06:39:18.872Z,12.37
2019-03-12T06:41:46.972Z,11.42
2019-03-12T06:44:15.023Z,12.32
2019-03-12T06:46:43.087Z,10.68
2019-03-12T06:49:14.147Z,11.53
2019-03-12T06:51:44.979Z,12.32
2019-03-12T06:54:16.106Z,12.05
2019-03-12T06:56:46.827Z,11.47
2019-03-12T06:59:14.884Z,11.75
2019-03-12T07:01:59.344Z,10.54
2019-03-12T07:04:43.724Z,12.16
2019-03-12T07:07:28.419Z,11.16
2019-03-12T07:09:56.472Z,10.86
2019-03-12T07:12:24.539Z,10.95
2019-03-12T07:15:01.350Z,12.27
2019-03-12T07:17:45.685Z,10.35
2019-03-12T07:20:17.079Z,11.63
2019-03-12T07:22:45.210Z,12.09
2019-03-12T07:25:28.231Z,11.78
2019-03-12T07:28:12.979Z,11.61
2019-03-12T07:30:50.412Z,11.85
2019-03-12T07:33:33.247Z,12.12
2019-03-12T07:36:10.701Z,11.47
2019-03-12T07:38:44.568Z,11.87
2019-03-12T07:41:32.195Z,12.29
2019-03-12T07:44:14.225Z,11.64
2019-03-12T07:46:48.264Z,11.71
2019-03-12T07:49:25.106Z,12.18
2019-03-12T07:52:09.866Z,11.96
2019-03-12T07:54:46.529Z,12.36
2019-03-12T07:57:17.654Z,12.33
2019-03-12T07:59:48.429Z,11.87
2019-03-12T08:02:16.525Z,11.57
2019-03-12T08:04:59.419Z,11.39
2019-03-12T08:07:30.014Z,11.89
2019-03-12T08:10:03.711Z,11.77
2019-03-12T08:12:34.294Z,11.50
2019-03-12T08:15:07.633Z,11.47
2019-03-12T08:17:52.002Z,11.26
2019-03-12T08:20:36.490Z,11.78
2019-03-12T08:23:16.868Z,10.83
2019-03-12T08:26:01.892Z,10.86
2019-03-12T08:28:36.009Z,11.50
2019-03-12T08:31:20.863Z,11.22
2019-03-12T08:33:50.945Z,10.88
2019-03-12T08:36:21.473Z,10.26
2019-03-12T08:38:52.450Z,11.11
2019-03-12T08:41:23.946Z,10.63
2019-03-12T08:43:52.017Z,10.86
2019-03-12T08:46:22.297Z,11.42
2019-03-12T08:51:46.317Z,10.98
2019-03-12T08:54:29.470Z,11.10
2019-03-12T08:57:15.551Z,11.39
2019-03-12T09:02:52.062Z,10.91
2019-03-12T09:05:22.990Z,11.59
2019-03-12T09:08:02.899Z,11.83
2019-03-12T09:10:33.487Z,10.95
2019-03-12T09:13:18.102Z,11.63
2019-03-12T09:15:55.321Z,11.31
2019-03-12T09:18:26.443Z,12.44
2019-03-12T09:20:54.502Z,12.33
2019-03-12T09:23:25.611Z,11.61
2019-03-12T09:25:59.732Z,11.67
2019-03-12T09:28:27.795Z,11.81
2019-03-12T09:31:04.793Z,11.55
2019-03-12T09:33:41.945Z,11.31
2019-03-12T09:36:24.848Z,11.10
2019-03-12T09:39:01.630Z,10.70
2019-03-12T09:41:38.776Z,11.35
2019-03-12T09:44:09.357Z,11.56
2019-03-12T09:46:53.762Z,11.51
2019-03-12T09:49:21.818Z,10.89
2019-03-12T09:52:08.003Z,11.17
2019-03-12T09:54:38.892Z,10.91
2019-03-12T09:57:06.963Z,10.91
2019-03-12T09:59:51.632Z,10.34
2019-03-12T10:02:37.584Z,10.82
2019-03-12T10:05:10.304Z,11.26
2019-03-12T10:07:40.144Z,11.76
2019-03-12T10:10:26.527Z,11.88
2019-03-12T10:12:54.576Z,11.75
2019-03-12T10:15:28.541Z,11.45
2019-03-12T10:18:02.459Z,12.21
2019-03-12T10:20:34.967Z,12.14
2019-03-12T10:23:05.555Z,12.73
2019-03-12T10:25:33.612Z,12.11
2019-03-12T10:28:18.373Z,11.63
2019-03-12T10:31:04.506Z,11.91
2019-03-12T10:33:32.640Z,11.94
2019-03-12T10:36:12.722Z,11.35
2019-03-12T10:39:30.199Z,11.21
2019-03-12T10:42:07.554Z,11.77
2019-03-12T10:44:38.609Z,11.48
2019-03-12T10:47:06.681Z,12.49
2019-03-12T10:49:37.320Z,12.55
2019-03-12T10:52:01.044Z,11.89
2019-03-12T10:54:27.222Z,11.39
2019-03-12T10:56:53.402Z,11.68
2019-03-12T10:59:19.603Z,12.62
2019-03-12T11:01:45.855Z,12.85
2019-03-12T11:04:12.039Z,12.50
2019-03-12T11:06:38.231Z,13.55
2019-03-12T11:09:05.098Z,13.58
2019-03-12T11:11:31.261Z,13.53
2019-03-12T11:13:57.462Z,13.25
2019-03-12T11:16:23.645Z,14.08
2019-03-12T11:18:49.780Z,13.27
2019-03-12T11:21:16.097Z,13.13
2019-03-12T11:23:42.250Z,12.92
2019-03-12T11:26:08.406Z,13.38
2019-03-12T11:28:34.618Z,12.53
2019-03-12T11:31:00.749Z,12.90
2019-03-12T11:33:26.918Z,13.10
2019-03-12T11:35:53.245Z,13.33
2019-03-12T11:38:19.580Z,12.63
2019-03-12T11:40:45.737Z,13.17
2019-03-12T11:43:11.949Z,12.89
2019-03-12T11:45:38.756Z,13.13
2019-03-12T11:48:05.481Z,12.51
2019-03-12T11:50:31.866Z,13.82
2019-03-12T11:52:59.822Z,14.29
2019-03-12T11:55:26.223Z,13.29
2019-03-12T11:57:52.446Z,12.99
2019-03-12T12:00:28.194Z,12.90
2019-03-12T12:02:59.761Z,12.96
2019-03-12T12:05:22.941Z,13.56
2019-03-12T12:07:49.137Z,12.90
2019-03-12T12:10:17.014Z,13.42
2019-03-12T12:12:43.286Z,13.61
2019-03-12T12:15:11.574Z,13.80
2019-03-12T12:17:37.857Z,12.78
2019-03-12T12:20:07.117Z,13.54
2019-03-12T12:22:33.394Z,12.37
2019-03-12T12:24:59.588Z,13.17
2019-03-12T12:27:25.748Z,13.95
2019-03-12T12:29:52.070Z,13.27
2019-03-12T12:32:18.248Z,13.62
2019-03-12T12:34:44.538Z,13.70
2019-03-12T12:37:13.679Z,14.35
2019-03-12T12:39:38.891Z,13.48
2019-03-12T12:42:05.052Z,13.23
2019-03-12T12:44:31.205Z,13.15
2019-03-12T12:46:57.516Z,13.31
2019-03-12T12:49:23.671Z,12.95
2019-03-12T12:51:49.935Z,13.59
2019-03-12T12:54:16.126Z,13.00
2019-03-12T12:56:42.291Z,12.80
2019-03-12T12:59:08.564Z,13.18
2019-03-12T13:01:34.760Z,12.45
2019-03-12T13:04:01.025Z,12.79
2019-03-12T13:06:27.182Z,12.46
2019-03-12T13:08:53.364Z,12.72
2019-03-12T13:11:19.556Z,13.27
2019-03-12T13:13:45.829Z,12.92
2019-03-12T13:16:24.182Z,11.83
2019-03-12T13:18:40.088Z,13.64
2019-03-12T13:21:06.249Z,12.74
2019-03-12T13:23:32.463Z,12.70
2019-03-12T13:25:58.727Z,12.18
2019-03-12T13:28:24.874Z,12.83
2019-03-12T13:30:51.183Z,12.68
2019-03-12T13:33:17.690Z,13.12
2019-03-12T13:35:43.844Z,13.36
2019-03-12T13:38:10.143Z,12.47
2019-03-12T13:40:36.297Z,13.14
2019-03-12T13:43:02.785Z,13.14
2019-03-12T13:45:30.820Z,12.87
2019-03-12T13:47:57.325Z,13.62
2019-03-12T13:50:23.528Z,13.68
2019-03-12T13:52:49.885Z,13.99
2019-03-12T13:55:16.621Z,13.36
2019-03-12T13:57:43.151Z,13.35
2019-03-12T14:00:25.616Z,12.94
2019-03-12T14:02:52.178Z,12.92
2019-03-12T14:05:18.634Z,13.49
2019-03-12T14:07:45.330Z,14.10
2019-03-12T14:10:14.693Z,13.89
2019-03-12T14:12:40.947Z,12.53
2019-03-12T14:15:10.742Z,12.98
2019-03-12T14:17:36.898Z,13.21
2019-03-12T14:20:06.673Z,13.47
2019-03-12T14:22:32.885Z,13.25
2019-03-12T14:24:59.137Z,13.54
2019-03-12T14:27:25.291Z,13.33
2019-03-12T14:29:51.477Z,13.19
2019-03-12T14:32:17.631Z,13.89
2019-03-12T14:34:43.791Z,13.77
2019-03-12T14:37:10.030Z,13.60
2019-03-12T14:39:36.237Z,13.85
2019-03-12T14:42:03.002Z,13.29
2019-03-12T14:44:29.290Z,13.27
2019-03-12T14:46:55.448Z,13.04
2019-03-12T14:49:21.614Z,13.64
2019-03-12T14:51:54.433Z,14.22
2019-03-12T14:54:20.597Z,14.06
2019-03-12T14:56:46.756Z,14.52
2019-03-12T14:59:13.063Z,13.83
2019-03-12T15:01:39.222Z,13.91
2019-03-12T15:04:05.491Z,13.62
2019-03-12T15:06:31.707Z,13.90
2019-03-12T15:08:57.977Z,13.27
2019-03-12T15:11:24.228Z,13.73
2019-03-12T15:13:50.427Z,13.50
2019-03-12T15:16:16.584Z,14.18
2019-03-12T15:18:43.038Z,13.71
2019-03-12T15:21:09.232Z,13.91
2019-03-12T15:23:35.382Z,13.62
2019-03-12T15:26:01.548Z,13.78
2019-03-12T15:28:27.732Z,13.24
2019-03-12T15:30:53.894Z,13.11
2019-03-12T15:33:20.186Z,13.73
2019-03-12T15:35:46.373Z,13.25
2019-03-12T15:38:12.643Z,13.70
2019-03-12T15:40:38.817Z,13.28
2019-03-12T15:43:05.118Z,13.98
2019-03-12T15:45:31.379Z,13.62
2019-03-12T15:47:57.644Z,13.69
2019-03-12T15:50:23.937Z,13.41
2019-03-12T15:52:50.203Z,13.71
2019-03-12T15:55:16.372Z,13.63
2019-03-12T15:57:42.572Z,14.08
2019-03-12T16:00:14.107Z,12.88
2019-03-12T16:02:40.272Z,13.18
2019-03-12T16:05:07.482Z,13.20
2019-03-12T16:07:33.736Z,12.98
2019-03-12T16:09:59.895Z,12.92
2019-03-12T16:12:26.202Z,13.42
2019-03-12T16:14:52.410Z,13.35
2019-03-12T16:17:18.571Z,13.28
2019-03-12T16:19:44.764Z,13.65
2019-03-12T16:22:10.931Z,13.70
2019-03-12T16:24:37.086Z,13.28
2019-03-12T16:27:03.546Z,13.94
2019-03-12T16:29:29.844Z,13.57
2019-03-12T16:31:55.996Z,13.09
2019-03-12T16:34:22.767Z,13.29
2019-03-12T16:36:48.963Z,13.28
2019-03-12T16:39:15.140Z,13.26
2019-03-12T16:41:41.347Z,13.59
2019-03-12T16:44:07.515Z,13.59
2019-03-12T16:46:33.776Z,13.68
2019-03-12T16:48:59.968Z,13.58
2019-03-12T16:51:26.136Z,13.73
2019-03-12T16:53:52.394Z,13.33
2019-03-12T16:56:18.586Z,13.30
2019-03-12T16:58:44.743Z,13.19
2019-03-12T17:01:10.903Z,13.47
2019-03-12T17:03:37.101Z,13.77
2019-03-12T17:06:03.373Z,13.26
2019-03-12T17:08:29.649Z,13.65
2019-03-12T17:11:02.524Z,13.88
2019-03-12T17:13:23.905Z,13.34
2019-03-12T17:15:54.509Z,12.61
2019-03-12T17:18:18.160Z,12.75
2019-03-12T17:20:44.442Z,13.25
2019-03-12T17:23:10.602Z,13.84
2019-03-12T17:25:36.892Z,12.98
2019-03-12T17:28:03.052Z,13.13
2019-03-12T17:30:29.212Z,13.19
2019-03-12T17:32:55.515Z,13.05
2019-03-12T17:35:30.641Z,13.03
2019-03-12T17:37:56.905Z,13.04
2019-03-12T17:40:23.106Z,13.73
2019-03-12T17:42:49.363Z,13.18
2019-03-12T17:45:15.653Z,13.44
2019-03-12T17:47:41.843Z,13.40
2019-03-12T17:50:10.711Z,12.34
2019-03-12T17:52:37.064Z,13.53
2019-03-12T17:55:06.172Z,12.42
2019-03-12T17:57:32.519Z,13.32
2019-03-12T17:59:58.663Z,13.10
2019-03-12T18:02:25.144Z,13.13
2019-03-12T18:04:51.295Z,12.92
2019-03-12T18:07:17.557Z,12.50
2019-03-12T18:09:43.770Z,12.88
2019-03-12T18:12:09.922Z,12.25
2019-03-12T18:14:36.222Z,12.37
2019-03-12T18:17:02.398Z,12.18
2019-03-12T18:19:28.665Z,13.38
2019-03-12T18:21:54.859Z,12.82
2019-03-12T18:24:21.160Z,12.76
2019-03-12T18:26:47.326Z,12.57
2019-03-12T18:29:14.084Z,12.40
2019-03-12T18:31:40.328Z,12.53
2019-03-12T18:34:06.647Z,12.38
2019-03-12T18:36:32.914Z,12.83
2019-03-12T18:39:02.883Z,13.01
2019-03-12T18:41:27.340Z,13.17
2019-03-12T18:43:53.560Z,13.02
2019-03-12T18:46:19.903Z,12.72
2019-03-12T18:48:46.130Z,13.47
2019-03-12T18:51:12.351Z,13.18
2019-03-12T18:53:39.566Z,13.54
2019-03-12T18:56:05.714Z,13.34
2019-03-12T18:58:31.977Z,13.54
2019-03-12T19:01:00.596Z,13.61
2019-03-12T19:03:27.055Z,13.46
2019-03-12T19:05:53.225Z,14.02
2019-03-12T19:08:19.877Z,13.18
2019-03-12T19:10:46.206Z,14.00
2019-03-12T19:13:12.363Z,13.37
2019-03-12T19:15:38.666Z,13.53
2019-03-12T19:18:04.828Z,13.77
2019-03-12T19:20:33.076Z,14.24
2019-03-12T19:22:59.266Z,14.30
2019-03-12T19:25:33.981Z,14.27
2019-03-12T19:28:00.669Z,14.15
2019-03-12T19:30:27.036Z,14.71
2019-03-12T19:32:55.095Z,14.73
2019-03-12T19:35:32.159Z,14.57
2019-03-12T19:37:59.516Z,15.39
2019-03-12T19:40:28.893Z,15.76
2019-03-12T19:42:55.289Z,15.05
2019-03-12T19:45:21.540Z,14.65
2019-03-12T19:47:47.779Z,14.75
2019-03-12T19:50:25.692Z,14.75
2019-03-12T19:52:51.915Z,15.44
2019-03-12T19:55:31.088Z,15.19
2019-03-12T19:57:57.332Z,15.21
2019-03-12T20:00:25.397Z,15.41
2019-03-12T20:02:51.751Z,15.30
2019-03-12T20:05:17.976Z,15.19
2019-03-12T20:07:44.119Z,14.99
2019-03-12T20:10:38.331Z,15.12
2019-03-12T20:13:36.674Z,14.79
2019-03-12T20:16:38.588Z,14.49
2019-03-12T20:19:43.293Z,14.38
2019-03-12T20:22:32.582Z,13.85
2019-03-12T20:25:23.960Z,13.38
2019-03-12T20:28:08.279Z,13.13
2019-03-12T20:30:54.713Z,13.18
2019-03-12T20:33:56.596Z,13.62
2019-03-12T20:36:49.438Z,13.18
2019-03-12T20:39:38.900Z,12.54
2019-03-12T20:42:44.049Z,12.81
2019-03-12T20:45:47.194Z,13.00
2019-03-12T20:48:33.559Z,13.02
2019-03-12T20:51:20.016Z,13.35
2019-03-12T20:53:55.597Z,12.77
2019-03-12T20:56:42.130Z,13.74
2019-03-12T20:59:36.140Z,13.42
2019-03-12T21:02:35.100Z,13.65
2019-03-12T21:05:30.966Z,12.89
2019-03-12T21:08:20.967Z,12.57
2019-03-12T21:11:02.692Z,13.00
2019-03-12T21:13:53.765Z,12.68
2019-03-12T21:16:40.084Z,12.86
2019-03-12T21:19:35.828Z,12.44
2019-03-12T21:22:14.568Z,12.13
2019-03-12T21:24:50.352Z,12.37
2019-03-12T21:27:28.865Z,13.37
2019-03-12T21:29:54.763Z,13.09
2019-03-12T21:32:20.943Z,12.74
2019-03-12T21:34:47.097Z,12.60
2019-03-12T21:37:13.789Z,13.07
2019-03-12T21:39:40.050Z,13.04
2019-03-12T21:42:06.539Z,13.12
2019-03-12T21:44:33.048Z,13.24
2019-03-12T21:46:59.393Z,13.29
2019-03-12T21:49:25.656Z,13.04
2019-03-12T21:51:51.961Z,13.76
2019-03-12T21:54:18.121Z,14.22
2019-03-12T21:56:44.346Z,13.90
2019-03-12T21:59:10.541Z,13.53
2019-03-12T22:01:36.700Z,13.44
2019-03-12T22:04:02.868Z,13.15
2019-03-12T22:06:29.163Z,13.27
2019-03-12T22:08:56.339Z,13.40
2019-03-12T22:11:22.507Z,13.36
2019-03-12T22:13:48.729Z,13.24
2019-03-12T22:16:14.995Z,13.51
2019-03-12T22:18:41.147Z,14.56
2019-03-12T22:21:07.351Z,14.74
2019-03-12T22:23:44.238Z,13.92
2019-03-12T22:26:10.420Z,14.31
2019-03-12T22:28:36.580Z,14.15
2019-03-12T22:31:02.863Z,14.13
2019-03-12T22:33:29.055Z,13.74
2019-03-12T22:35:55.333Z,14.75
2019-03-12T22:38:21.497Z,14.60
2019-03-12T22:40:47.793Z,14.96
2019-03-12T22:43:13.949Z,15.17
2019-03-12T22:45:40.116Z,15.32
2019-03-12T22:48:06.406Z,14.37
2019-03-12T22:50:32.561Z,14.47
2019-03-12T22:52:58.722Z,14.50
2019-03-12T22:55:24.933Z,15.13
2019-03-12T22:57:51.097Z,14.67
2019-03-12T23:00:18.357Z,14.23
2019-03-12T23:02:44.662Z,14.48
2019-03-12T23:05:11.111Z,14.49
2019-03-12T23:07:37.470Z,14.61
2019-03-12T23:10:07.160Z,14.65
2019-03-12T23:12:33.316Z,14.14
2019-03-12T23:14:59.473Z,13.98
2019-03-12T23:17:25.769Z,14.31
2019-03-12T23:19:51.943Z,14.62
2019-03-12T23:22:18.086Z,14.31
2019-03-12T23:24:44.276Z,14.77
2019-03-12T23:27:10.452Z,14.45
2019-03-12T23:29:36.598Z,14.08
2019-03-12T23:32:02.892Z,13.66
2019-03-12T23:34:29.184Z,14.31
2019-03-12T23:36:55.337Z,14.80
2019-03-12T23:39:21.541Z,14.38
2019-03-12T23:41:47.796Z,14.18
2019-03-12T23:44:13.959Z,14.23
2019-03-12T23:46:40.147Z,13.54
2019-03-12T23:49:06.305Z,13.83
2019-03-12T23:51:32.564Z,13.67
2019-03-12T23:53:58.846Z,14.37
2019-03-12T23:56:25.007Z,13.52
2019-03-12T23:58:51.258Z,13.60
